LFSTLFBZ

Guest
Details From LFST - Entzheim
To LFBZ - Biarritz Bayonne Anglet
Flight Number -
Tags Generated
Created
Modified
Stats Distance 488 nm / 903 km
Max Altitude 0 ft / 0 m
Waypoints 4
Social Downloads 2
Likes 0
Share VATSIM

Download

Looking for another format? Having issues loading an existing format? Contact us
Advertisement - Login to hide

Notes

Generated

Route

LFST CFA28 RW09 LFBZ

ID Type Via Altitude Latitude Longitude Leg Dist Tot Dist Heading (true) Name
O LFST APT - 0 ft / 0 m 48.53118˚ 7.61607˚ - 0 nm - -
CFA28 FIX - 0 ft / 0 m 46.24833˚ 3.09833˚ 229 nm 229 nm 235° / 232° -
RW09 FIX - 0 ft / 0 m 43.46827˚ -1.53470˚ 258 nm 487 nm 231° / 228° -
O LFBZ APT - 0 ft / 0 m 43.46824˚ -1.53723˚ 0 nm 487 nm 269° / 269° -

Altitude Profile

Advertisement - Login to hide

Weather


0- 5 10 15 20 25 30 35+ Temperature / ° C

Clouds and Precipitation
Forecast for 2017-12-13 06:00 UTC. Updated 21 minutes ago

Ground ~20,000 ft ~40,000 ft Winds

LFST

Details ICAO LFST (SXB)
Name Entzheim
Region France
Timezone Europe/Paris (UTC+1.0)
Stats Elevation 504 ft / 154 m (AMSL)
Location 48.538335° 7.628265°
Runways 1
Magnetic Variation 2.103° E

METAR

LFST 130330Z AUTO 18010KT 9999 BKN040 BKN048 01/M01 Q1018 NOSIG

Decode

TAF

TAF LFST 122300Z 1300/1324 17005KT CAVOK BECMG 1312/1315 OVC040 TEMPO 1315/1324 18015G25KT -RA PROB40 TEMPO 1320/1324 4000 RA

Decode

Departure Runways

ID Width Length Bearing (true) Bearing (mag) Surface Threshold Offset Overrun Length
05 148 ft / 45 m 7,899 ft / 2,408 m 48.60° 46.50° Asphalt 0 ft / 0 m 860 ft / 262 m
23 148 ft / 45 m 7,899 ft / 2,408 m 228.62° 226.52° Asphalt 0 ft / 0 m 902 ft / 275 m

LFBZ

Details ICAO LFBZ (BIQ)
Name Biarritz-Anglet-Bayonne
Region France
Timezone Europe/Paris (UTC+1.0)
Stats Elevation 245 ft / 75 m (AMSL)
Location 43.468427° -1.523322°
Runways 1
Magnetic Variation 0.226° W

METAR

LFBZ 130330Z AUTO 19005KT 120V240 CAVOK 07/02 Q1020

Decode

TAF

TAF LFBZ 121815Z 1218/1318 CNL

Decode

Destination Runways

ID Width Length Bearing (true) Bearing (mag) Surface Threshold Offset Overrun Length
09 148 ft / 45 m 7,388 ft / 2,252 m 89.12° 89.35° Asphalt 673 ft / 205 m 0 ft / 0 m
27 148 ft / 45 m 7,388 ft / 2,252 m 269.14° 269.37° Asphalt 0 ft / 0 m 0 ft / 0 m

Approach Navaids

Runway Type Ident Frequency Range Bearing (true) Bearing (mag) Slope Elevation
09 Localiser BZ 111.34 MHz 18 nm / 33 km 89.35° 89.58° - 243 ft / 74 m (AMSL)
09 Glidescope BZ 111.34 MHz 10 nm / 19 km 89.13° 89.36° 3.00° 243 ft / 74 m (AMSL)
27 Localiser BZ 111.35 MHz 18 nm / 33 km 269.04° 269.27° - 234 ft / 71 m (AMSL)
27 Glidescope BZ 111.35 MHz 10 nm / 19 km 269.13° 269.36° 3.00° 234 ft / 71 m (AMSL)
27 DME BZ 111.35 MHz 18 nm / 33 km - - - 223 ft / 68 m (AMSL)

Popular Alternatives